sensor_id;sensor_type;location;lat;lon;timestamp;pressure;altitude;pressure_sealevel;temperature;humidity
51239;BME280;38154;47.548;18.828;2023-02-03T00:00:11;99368.87;;;-0.03;100.00
51239;BME280;38154;47.548;18.828;2023-02-03T00:02:36;99366.56;;;0.02;100.00
51239;BME280;38154;47.548;18.828;2023-02-03T00:05:02;99370.94;;;0.05;100.00
51239;BME280;38154;47.548;18.828;2023-02-03T00:07:28;99383.78;;;0.05;100.00
51239;BME280;38154;47.548;18.828;2023-02-03T00:09:54;99393.06;;;0.03;100.00
51239;BME280;38154;47.548;18.828;2023-02-03T00:12:20;99395.62;;;0.03;100.00
51239;BME280;38154;47.548;18.828;2023-02-03T00:14:46;99408.13;;;-0.04;100.00
51239;BME280;38154;47.548;18.828;2023-02-03T00:17:12;99405.41;;;-0.07;100.00
51239;BME280;38154;47.548;18.828;2023-02-03T00:19:39;99407.47;;;-0.16;100.00
51239;BME280;38154;47.548;18.828;2023-02-03T00:22:05;99401.13;;;-0.23;100.00
51239;BME280;38154;47.548;18.828;2023-02-03T00:24:30;99404.47;;;-0.24;100.00
51239;BME280;38154;47.548;18.828;2023-02-03T00:26:56;99411.94;;;-0.28;100.00
51239;BME280;38154;47.548;18.828;2023-02-03T00:29:22;99411.12;;;-0.27;100.00
51239;BME280;38154;47.548;18.828;2023-02-03T00:31:53;99414.41;;;-0.30;100.00
51239;BME280;38154;47.548;18.828;2023-02-03T00:34:18;99423.44;;;-0.36;100.00
51239;BME280;38154;47.548;18.828;2023-02-03T00:36:44;99419.03;;;-0.39;100.00
51239;BME280;38154;47.548;18.828;2023-02-03T00:39:13;99422.53;;;-0.37;100.00
51239;BME280;38154;47.548;18.828;2023-02-03T00:41:39;99419.19;;;-0.36;100.00
51239;BME280;38154;47.548;18.828;2023-02-03T00:44:05;99419.94;;;-0.39;100.00
51239;BME280;38154;47.548;18.828;2023-02-03T00:46:30;99413.28;;;-0.35;100.00
51239;BME280;38154;47.548;18.828;2023-02-03T00:48:56;99412.94;;;-0.41;100.00
51239;BME280;38154;47.548;18.828;2023-02-03T00:51:22;99405.16;;;-0.43;100.00
51239;BME280;38154;47.548;18.828;2023-02-03T00:53:47;99404.38;;;-0.42;100.00
51239;BME280;38154;47.548;18.828;2023-02-03T00:56:13;99405.94;;;-0.44;100.00
51239;BME280;38154;47.548;18.828;2023-02-03T00:58:39;99408.59;;;-0.42;100.00
51239;BME280;38154;47.548;18.828;2023-02-03T01:01:05;99403.47;;;-0.59;100.00
51239;BME280;38154;47.548;18.828;2023-02-03T01:03:30;99418.66;;;-0.62;100.00
51239;BME280;38154;47.548;18.828;2023-02-03T01:05:56;99414.41;;;-0.61;100.00
51239;BME280;38154;47.548;18.828;2023-02-03T01:08:32;99416.75;;;-0.49;100.00
51239;BME280;38154;47.548;18.828;2023-02-03T01:10:57;99421.00;;;-0.50;100.00
51239;BME280;38154;47.548;18.828;2023-02-03T01:13:23;99429.47;;;-0.51;100.00
51239;BME280;38154;47.548;18.828;2023-02-03T01:15:49;99438.59;;;-0.56;100.00
51239;BME280;38154;47.548;18.828;2023-02-03T01:18:14;99437.44;;;-0.61;100.00
51239;BME280;38154;47.548;18.828;2023-02-03T01:20:40;99441.53;;;-0.65;100.00
51239;BME280;38154;47.548;18.828;2023-02-03T01:23:06;99433.09;;;-0.62;100.00
51239;BME280;38154;47.548;18.828;2023-02-03T01:25:33;99439.22;;;-0.60;100.00
51239;BME280;38154;47.548;18.828;2023-02-03T01:27:59;99434.09;;;-0.60;100.00
51239;BME280;38154;47.548;18.828;2023-02-03T01:30:24;99439.66;;;-0.67;100.00
51239;BME280;38154;47.548;18.828;2023-02-03T01:32:50;99445.22;;;-0.75;100.00
51239;BME280;38154;47.548;18.828;2023-02-03T01:35:16;99445.06;;;-0.78;100.00
51239;BME280;38154;47.548;18.828;2023-02-03T01:37:41;99438.19;;;-0.79;100.00
51239;BME280;38154;47.548;18.828;2023-02-03T01:40:07;99437.28;;;-0.79;100.00
51239;BME280;38154;47.548;18.828;2023-02-03T01:42:33;99439.66;;;-0.82;100.00
51239;BME280;38154;47.548;18.828;2023-02-03T01:44:59;99447.09;;;-0.87;100.00
51239;BME280;38154;47.548;18.828;2023-02-03T01:47:29;99442.78;;;-0.88;100.00
51239;BME280;38154;47.548;18.828;2023-02-03T01:50:07;99451.87;;;-0.93;100.00
51239;BME280;38154;47.548;18.828;2023-02-03T01:52:34;99450.09;;;-0.94;100.00
51239;BME280;38154;47.548;18.828;2023-02-03T01:55:01;99451.78;;;-0.95;100.00
51239;BME280;38154;47.548;18.828;2023-02-03T01:57:32;99461.22;;;-1.08;100.00
51239;BME280;38154;47.548;18.828;2023-02-03T01:59:59;99462.97;;;-1.07;100.00
51239;BME280;38154;47.548;18.828;2023-02-03T02:02:25;99464.28;;;-1.14;100.00
51239;BME280;38154;47.548;18.828;2023-02-03T02:04:53;99461.03;;;-1.12;100.00
51239;BME280;38154;47.548;18.828;2023-02-03T02:07:20;99462.34;;;-1.18;100.00
51239;BME280;38154;47.548;18.828;2023-02-03T02:09:45;99465.88;;;-1.16;100.00
51239;BME280;38154;47.548;18.828;2023-02-03T02:12:11;99455.72;;;-1.15;100.00
51239;BME280;38154;47.548;18.828;2023-02-03T02:14:37;99462.97;;;-1.07;100.00
51239;BME280;38154;47.548;18.828;2023-02-03T02:34:58;99471.44;;;-1.23;100.00
51239;BME280;38154;47.548;18.828;2023-02-03T02:40:22;99466.84;;;-1.14;100.00
51239;BME280;38154;47.548;18.828;2023-02-03T02:45:20;99477.50;;;-1.21;100.00
51239;BME280;38154;47.548;18.828;2023-02-03T02:47:46;99481.56;;;-1.25;100.00
51239;BME280;38154;47.548;18.828;2023-02-03T02:50:15;99490.03;;;-1.26;100.00
51239;BME280;38154;47.548;18.828;2023-02-03T02:52:44;99487.47;;;-1.26;100.00
51239;BME280;38154;47.548;18.828;2023-02-03T02:55:20;99485.81;;;-1.25;100.00
51239;BME280;38154;47.548;18.828;2023-02-03T02:57:52;99496.94;;;-1.25;100.00
51239;BME280;38154;47.548;18.828;2023-02-03T03:00:19;99502.72;;;-1.27;100.00
51239;BME280;38154;47.548;18.828;2023-02-03T03:02:45;99495.97;;;-1.27;100.00
51239;BME280;38154;47.548;18.828;2023-02-03T03:05:11;99489.06;;;-1.28;100.00
51239;BME280;38154;47.548;18.828;2023-02-03T03:07:44;99491.09;;;-1.37;100.00
51239;BME280;38154;47.548;18.828;2023-02-03T03:10:13;99483.56;;;-1.34;100.00
51239;BME280;38154;47.548;18.828;2023-02-03T03:12:43;99483.94;;;-1.28;100.00
51239;BME280;38154;47.548;18.828;2023-02-03T03:15:10;99480.03;;;-1.36;100.00
51239;BME280;38154;47.548;18.828;2023-02-03T03:17:40;99483.22;;;-1.40;100.00
51239;BME280;38154;47.548;18.828;2023-02-03T03:20:14;99479.25;;;-1.35;100.00
51239;BME280;38154;47.548;18.828;2023-02-03T03:22:44;99477.13;;;-1.42;100.00
51239;BME280;38154;47.548;18.828;2023-02-03T03:25:16;99478.59;;;-1.46;100.00
51239;BME280;38154;47.548;18.828;2023-02-03T03:27:47;99475.34;;;-1.43;100.00
51239;BME280;38154;47.548;18.828;2023-02-03T03:30:14;99485.69;;;-1.42;100.00
51239;BME280;38154;47.548;18.828;2023-02-03T03:32:42;99471.47;;;-1.52;100.00
51239;BME280;38154;47.548;18.828;2023-02-03T03:35:08;99492.19;;;-1.47;100.00
51239;BME280;38154;47.548;18.828;2023-02-03T03:37:39;99491.00;;;-1.39;100.00
51239;BME280;38154;47.548;18.828;2023-02-03T03:42:47;99482.94;;;-1.45;100.00
51239;BME280;38154;47.548;18.828;2023-02-03T03:47:50;99472.63;;;-1.46;100.00
51239;BME280;38154;47.548;18.828;2023-02-03T03:50:20;99471.34;;;-1.53;100.00
51239;BME280;38154;47.548;18.828;2023-02-03T03:52:48;99470.94;;;-1.46;100.00
51239;BME280;38154;47.548;18.828;2023-02-03T03:55:14;99465.13;;;-1.43;100.00
51239;BME280;38154;47.548;18.828;2023-02-03T03:57:45;99469.03;;;-1.35;100.00
51239;BME280;38154;47.548;18.828;2023-02-03T04:00:16;99465.75;;;-1.33;100.00
51239;BME280;38154;47.548;18.828;2023-02-03T04:02:45;99456.16;;;-1.37;100.00
51239;BME280;38154;47.548;18.828;2023-02-03T04:05:12;99469.53;;;-1.41;100.00
51239;BME280;38154;47.548;18.828;2023-02-03T04:07:40;99458.25;;;-1.29;100.00
51239;BME280;38154;47.548;18.828;2023-02-03T04:10:06;99455.34;;;-1.21;100.00
51239;BME280;38154;47.548;18.828;2023-02-03T04:12:36;99457.84;;;-1.22;100.00
51239;BME280;38154;47.548;18.828;2023-02-03T04:15:02;99452.47;;;-1.27;100.00
51239;BME280;38154;47.548;18.828;2023-02-03T04:17:28;99451.84;;;-1.23;100.00
51239;BME280;38154;47.548;18.828;2023-02-03T04:19:53;99451.94;;;-1.21;100.00
51239;BME280;38154;47.548;18.828;2023-02-03T04:22:19;99448.41;;;-1.23;100.00
51239;BME280;38154;47.548;18.828;2023-02-03T04:24:44;99444.53;;;-1.17;100.00
51239;BME280;38154;47.548;18.828;2023-02-03T04:27:10;99441.69;;;-1.21;100.00
51239;BME280;38154;47.548;18.828;2023-02-03T04:29:36;99445.41;;;-1.16;100.00
51239;BME280;38154;47.548;18.828;2023-02-03T04:32:01;99437.81;;;-1.15;100.00
51239;BME280;38154;47.548;18.828;2023-02-03T04:34:27;99439.78;;;-1.10;100.00
51239;BME280;38154;47.548;18.828;2023-02-03T04:36:53;99442.56;;;-1.06;100.00
51239;BME280;38154;47.548;18.828;2023-02-03T04:39:20;99439.16;;;-0.91;100.00
51239;BME280;38154;47.548;18.828;2023-02-03T04:41:45;99438.69;;;-0.84;100.00
51239;BME280;38154;47.548;18.828;2023-02-03T04:44:11;99451.00;;;-0.79;100.00
51239;BME280;38154;47.548;18.828;2023-02-03T04:46:37;99451.50;;;-0.69;100.00
51239;BME280;38154;47.548;18.828;2023-02-03T04:49:02;99462.97;;;-0.63;100.00
51239;BME280;38154;47.548;18.828;2023-02-03T04:51:28;99463.94;;;-0.61;100.00
51239;BME280;38154;47.548;18.828;2023-02-03T04:53:54;99442.75;;;-0.58;100.00
51239;BME280;38154;47.548;18.828;2023-02-03T04:56:19;99446.44;;;-0.53;100.00
51239;BME280;38154;47.548;18.828;2023-02-03T04:58:45;99440.59;;;-0.50;100.00
51239;BME280;38154;47.548;18.828;2023-02-03T05:01:11;99438.03;;;-0.50;100.00
51239;BME280;38154;47.548;18.828;2023-02-03T05:03:36;99449.69;;;-0.56;100.00
51239;BME280;38154;47.548;18.828;2023-02-03T05:06:02;99462.63;;;-0.69;100.00
51239;BME280;38154;47.548;18.828;2023-02-03T05:08:28;99455.47;;;-0.75;100.00
51239;BME280;38154;47.548;18.828;2023-02-03T05:10:54;99450.19;;;-0.78;100.00
51239;BME280;38154;47.548;18.828;2023-02-03T05:13:20;99471.47;;;-0.79;100.00
51239;BME280;38154;47.548;18.828;2023-02-03T05:15:46;99474.44;;;-0.86;100.00
51239;BME280;38154;47.548;18.828;2023-02-03T05:18:11;99479.06;;;-0.95;100.00
51239;BME280;38154;47.548;18.828;2023-02-03T05:20:37;99482.22;;;-0.99;100.00
51239;BME280;38154;47.548;18.828;2023-02-03T05:23:03;99480.72;;;-0.96;100.00
51239;BME280;38154;47.548;18.828;2023-02-03T05:25:29;99485.84;;;-0.96;100.00
51239;BME280;38154;47.548;18.828;2023-02-03T05:27:55;99479.56;;;-0.86;100.00
51239;BME280;38154;47.548;18.828;2023-02-03T05:30:20;99486.56;;;-0.83;100.00
51239;BME280;38154;47.548;18.828;2023-02-03T05:32:47;99482.03;;;-0.72;100.00
51239;BME280;38154;47.548;18.828;2023-02-03T05:35:13;99471.72;;;-0.74;100.00
51239;BME280;38154;47.548;18.828;2023-02-03T05:37:38;99482.13;;;-0.71;100.00
51239;BME280;38154;47.548;18.828;2023-02-03T05:40:04;99480.91;;;-0.78;100.00
51239;BME280;38154;47.548;18.828;2023-02-03T05:42:48;99478.69;;;-0.71;100.00
51239;BME280;38154;47.548;18.828;2023-02-03T05:45:14;99475.31;;;-0.70;100.00
51239;BME280;38154;47.548;18.828;2023-02-03T05:47:40;99479.41;;;-0.74;100.00
51239;BME280;38154;47.548;18.828;2023-02-03T05:50:06;99468.37;;;-0.73;100.00
51239;BME280;38154;47.548;18.828;2023-02-03T05:52:32;99478.78;;;-0.70;100.00
51239;BME280;38154;47.548;18.828;2023-02-03T05:54:58;99471.53;;;-0.62;100.00
51239;BME280;38154;47.548;18.828;2023-02-03T05:57:23;99468.47;;;-0.71;100.00
51239;BME280;38154;47.548;18.828;2023-02-03T05:59:49;99462.00;;;-0.80;100.00
51239;BME280;38154;47.548;18.828;2023-02-03T06:02:15;99464.47;;;-0.81;100.00
51239;BME280;38154;47.548;18.828;2023-02-03T06:04:40;99459.19;;;-0.69;100.00
51239;BME280;38154;47.548;18.828;2023-02-03T06:07:06;99461.56;;;-0.72;100.00
51239;BME280;38154;47.548;18.828;2023-02-03T06:09:32;99460.09;;;-0.84;100.00
51239;BME280;38154;47.548;18.828;2023-02-03T06:11:57;99462.97;;;-0.78;100.00
51239;BME280;38154;47.548;18.828;2023-02-03T06:14:23;99464.66;;;-0.63;100.00
51239;BME280;38154;47.548;18.828;2023-02-03T06:16:49;99460.94;;;-0.53;100.00
51239;BME280;38154;47.548;18.828;2023-02-03T06:19:14;99449.78;;;-0.54;100.00
51239;BME280;38154;47.548;18.828;2023-02-03T06:21:40;99471.88;;;-0.56;100.00
51239;BME280;38154;47.548;18.828;2023-02-03T06:24:06;99467.72;;;-0.54;100.00
51239;BME280;38154;47.548;18.828;2023-02-03T06:26:31;99471.62;;;-0.61;100.00
51239;BME280;38154;47.548;18.828;2023-02-03T06:28:57;99477.19;;;-0.68;100.00
51239;BME280;38154;47.548;18.828;2023-02-03T06:31:23;99469.41;;;-0.69;100.00
51239;BME280;38154;47.548;18.828;2023-02-03T06:33:49;99479.12;;;-0.64;100.00
51239;BME280;38154;47.548;18.828;2023-02-03T06:36:14;99480.00;;;-0.48;100.00
51239;BME280;38154;47.548;18.828;2023-02-03T06:38:40;99474.81;;;-0.50;100.00
51239;BME280;38154;47.548;18.828;2023-02-03T06:41:05;99478.97;;;-0.52;100.00
51239;BME280;38154;47.548;18.828;2023-02-03T06:43:31;99470.28;;;-0.39;100.00
51239;BME280;38154;47.548;18.828;2023-02-03T06:45:57;99472.12;;;-0.36;100.00
51239;BME280;38154;47.548;18.828;2023-02-03T06:48:23;99466.38;;;-0.32;100.00
51239;BME280;38154;47.548;18.828;2023-02-03T06:50:49;99463.28;;;-0.27;100.00
51239;BME280;38154;47.548;18.828;2023-02-03T06:53:14;99467.94;;;-0.20;100.00
51239;BME280;38154;47.548;18.828;2023-02-03T06:55:40;99468.91;;;-0.17;100.00
51239;BME280;38154;47.548;18.828;2023-02-03T06:58:05;99463.00;;;-0.16;100.00
51239;BME280;38154;47.548;18.828;2023-02-03T07:00:31;99457.69;;;-0.20;100.00
51239;BME280;38154;47.548;18.828;2023-02-03T07:02:57;99451.50;;;-0.23;100.00
51239;BME280;38154;47.548;18.828;2023-02-03T07:05:24;99453.91;;;-0.26;100.00
51239;BME280;38154;47.548;18.828;2023-02-03T07:07:50;99445.25;;;-0.28;100.00
51239;BME280;38154;47.548;18.828;2023-02-03T07:10:16;99449.12;;;-0.20;100.00
51239;BME280;38154;47.548;18.828;2023-02-03T07:12:42;99454.75;;;-0.11;100.00
51239;BME280;38154;47.548;18.828;2023-02-03T07:15:09;99457.81;;;-0.02;100.00
51239;BME280;38154;47.548;18.828;2023-02-03T07:17:34;99458.22;;;0.06;100.00
51239;BME280;38154;47.548;18.828;2023-02-03T07:20:00;99467.50;;;0.04;100.00
51239;BME280;38154;47.548;18.828;2023-02-03T07:22:26;99473.19;;;-0.02;100.00
51239;BME280;38154;47.548;18.828;2023-02-03T07:24:52;99482.75;;;0.17;100.00
51239;BME280;38154;47.548;18.828;2023-02-03T07:27:17;99474.84;;;0.46;100.00
51239;BME280;38154;47.548;18.828;2023-02-03T07:29:44;99471.88;;;0.38;100.00
51239;BME280;38154;47.548;18.828;2023-02-03T07:32:09;99480.13;;;0.32;100.00
51239;BME280;38154;47.548;18.828;2023-02-03T07:34:35;99477.00;;;0.38;100.00
51239;BME280;38154;47.548;18.828;2023-02-03T07:37:01;99476.28;;;0.41;100.00
51239;BME280;38154;47.548;18.828;2023-02-03T07:39:26;99491.91;;;0.45;100.00
51239;BME280;38154;47.548;18.828;2023-02-03T07:41:52;99488.13;;;0.39;100.00
51239;BME280;38154;47.548;18.828;2023-02-03T07:44:18;99484.47;;;0.50;100.00
51239;BME280;38154;47.548;18.828;2023-02-03T07:46:43;99479.41;;;0.51;100.00
51239;BME280;38154;47.548;18.828;2023-02-03T07:49:10;99480.28;;;0.52;100.00
51239;BME280;38154;47.548;18.828;2023-02-03T07:51:36;99470.69;;;0.48;100.00
51239;BME280;38154;47.548;18.828;2023-02-03T07:54:01;99474.53;;;0.40;100.00
51239;BME280;38154;47.548;18.828;2023-02-03T07:56:27;99480.84;;;0.46;100.00
51239;BME280;38154;47.548;18.828;2023-02-03T07:58:55;99489.34;;;0.45;100.00
51239;BME280;38154;47.548;18.828;2023-02-03T08:01:20;99488.88;;;0.52;100.00
51239;BME280;38154;47.548;18.828;2023-02-03T08:03:46;99482.06;;;0.53;100.00
51239;BME280;38154;47.548;18.828;2023-02-03T08:06:11;99465.06;;;0.55;100.00
51239;BME280;38154;47.548;18.828;2023-02-03T08:08:37;99465.22;;;0.42;100.00
51239;BME280;38154;47.548;18.828;2023-02-03T08:11:03;99459.78;;;0.35;100.00
51239;BME280;38154;47.548;18.828;2023-02-03T08:13:28;99463.22;;;0.36;100.00
51239;BME280;38154;47.548;18.828;2023-02-03T08:15:54;99464.59;;;0.46;100.00
51239;BME280;38154;47.548;18.828;2023-02-03T08:18:20;99465.78;;;0.52;100.00
51239;BME280;38154;47.548;18.828;2023-02-03T08:20:46;99460.34;;;0.63;100.00
51239;BME280;38154;47.548;18.828;2023-02-03T08:23:12;99466.16;;;0.77;100.00
51239;BME280;38154;47.548;18.828;2023-02-03T08:25:38;99461.13;;;0.78;100.00
51239;BME280;38154;47.548;18.828;2023-02-03T08:28:03;99460.00;;;0.73;100.00
51239;BME280;38154;47.548;18.828;2023-02-03T08:30:29;99469.72;;;0.62;100.00
51239;BME280;38154;47.548;18.828;2023-02-03T08:32:55;99471.22;;;0.59;100.00
51239;BME280;38154;47.548;18.828;2023-02-03T08:35:21;99484.97;;;0.59;100.00
51239;BME280;38154;47.548;18.828;2023-02-03T08:37:47;99475.16;;;0.52;100.00
51239;BME280;38154;47.548;18.828;2023-02-03T08:40:13;99477.72;;;0.52;100.00
51239;BME280;38154;47.548;18.828;2023-02-03T08:42:38;99483.50;;;0.48;100.00
51239;BME280;38154;47.548;18.828;2023-02-03T08:45:04;99484.00;;;0.41;100.00
51239;BME280;38154;47.548;18.828;2023-02-03T08:47:30;99482.63;;;0.31;100.00
51239;BME280;38154;47.548;18.828;2023-02-03T08:49:56;99483.09;;;0.24;100.00
51239;BME280;38154;47.548;18.828;2023-02-03T08:52:21;99486.50;;;0.08;100.00
51239;BME280;38154;47.548;18.828;2023-02-03T08:54:47;99483.37;;;-0.03;100.00
51239;BME280;38154;47.548;18.828;2023-02-03T08:57:13;99486.28;;;-0.12;100.00
51239;BME280;38154;47.548;18.828;2023-02-03T08:59:39;99491.09;;;-0.18;100.00
51239;BME280;38154;47.548;18.828;2023-02-03T09:02:06;99492.84;;;-0.17;100.00
51239;BME280;38154;47.548;18.828;2023-02-03T09:04:32;99497.97;;;-0.17;100.00
51239;BME280;38154;47.548;18.828;2023-02-03T09:06:58;99491.97;;;-0.17;100.00
51239;BME280;38154;47.548;18.828;2023-02-03T09:09:24;99492.84;;;-0.17;100.00
51239;BME280;38154;47.548;18.828;2023-02-03T09:11:51;99491.00;;;-0.20;100.00
51239;BME280;38154;47.548;18.828;2023-02-03T09:14:17;99495.66;;;-0.12;100.00
51239;BME280;38154;47.548;18.828;2023-02-03T09:16:43;99481.25;;;-0.10;100.00
51239;BME280;38154;47.548;18.828;2023-02-03T09:19:09;99484.72;;;-0.10;100.00
51239;BME280;38154;47.548;18.828;2023-02-03T09:21:34;99474.91;;;-0.17;100.00
51239;BME280;38154;47.548;18.828;2023-02-03T09:24:01;99471.62;;;-0.14;100.00
51239;BME280;38154;47.548;18.828;2023-02-03T09:26:29;99462.25;;;-0.14;100.00
51239;BME280;38154;47.548;18.828;2023-02-03T09:28:55;99462.44;;;-0.11;100.00
51239;BME280;38154;47.548;18.828;2023-02-03T09:31:20;99456.03;;;-0.03;100.00
51239;BME280;38154;47.548;18.828;2023-02-03T09:33:46;99452.19;;;-0.11;100.00
51239;BME280;38154;47.548;18.828;2023-02-03T09:36:12;99446.25;;;-0.10;100.00
51239;BME280;38154;47.548;18.828;2023-02-03T09:38:38;99448.53;;;0.01;100.00
51239;BME280;38154;47.548;18.828;2023-02-03T09:44:57;99436.63;;;-0.14;100.00
51239;BME280;38154;47.548;18.828;2023-02-03T09:47:39;99432.00;;;-0.05;100.00
51239;BME280;38154;47.548;18.828;2023-02-03T09:50:12;99424.19;;;0.09;100.00
51239;BME280;38154;47.548;18.828;2023-02-03T09:52:40;99413.03;;;0.25;100.00
51239;BME280;38154;47.548;18.828;2023-02-03T09:55:24;99410.62;;;0.44;100.00
51239;BME280;38154;47.548;18.828;2023-02-03T10:00:31;99390.28;;;0.31;100.00
51239;BME280;38154;47.548;18.828;2023-02-03T10:03:06;99390.09;;;0.44;100.00
51239;BME280;38154;47.548;18.828;2023-02-03T10:08:34;99390.03;;;0.43;100.00
51239;BME280;38154;47.548;18.828;2023-02-03T10:11:20;99377.34;;;0.46;100.00
51239;BME280;38154;47.548;18.828;2023-02-03T10:14:02;99361.34;;;0.68;100.00
51239;BME280;38154;47.548;18.828;2023-02-03T10:19:13;99354.41;;;0.83;100.00
51239;BME280;38154;47.548;18.828;2023-02-03T10:21:45;99350.75;;;0.78;100.00
51239;BME280;38154;47.548;18.828;2023-02-03T10:24:18;99341.84;;;0.71;100.00
51239;BME280;38154;47.548;18.828;2023-02-03T10:26:46;99333.31;;;0.89;100.00
51239;BME280;38154;47.548;18.828;2023-02-03T10:29:25;99326.97;;;1.00;100.00
51239;BME280;38154;47.548;18.828;2023-02-03T10:31:54;99321.94;;;1.02;100.00
51239;BME280;38154;47.548;18.828;2023-02-03T10:34:23;99326.19;;;1.01;100.00
51239;BME280;38154;47.548;18.828;2023-02-03T10:36:57;99318.03;;;0.92;100.00
51239;BME280;38154;47.548;18.828;2023-02-03T10:39:30;99313.94;;;0.78;100.00
51239;BME280;38154;47.548;18.828;2023-02-03T10:41:59;99307.63;;;0.71;100.00
51239;BME280;38154;47.548;18.828;2023-02-03T10:44:33;99304.31;;;0.73;100.00
51239;BME280;38154;47.548;18.828;2023-02-03T10:47:00;99301.53;;;0.69;100.00
51239;BME280;38154;47.548;18.828;2023-02-03T10:49:27;99297.44;;;0.72;100.00
51239;BME280;38154;47.548;18.828;2023-02-03T10:51:58;99290.53;;;0.71;100.00
51239;BME280;38154;47.548;18.828;2023-02-03T10:54:32;99280.38;;;0.57;100.00
51239;BME280;38154;47.548;18.828;2023-02-03T10:57:11;99275.19;;;0.55;100.00
51239;BME280;38154;47.548;18.828;2023-02-03T10:59:44;99266.53;;;0.53;100.00
51239;BME280;38154;47.548;18.828;2023-02-03T11:02:24;99263.31;;;0.57;100.00
51239;BME280;38154;47.548;18.828;2023-02-03T11:07:43;99247.94;;;0.57;100.00
51239;BME280;38154;47.548;18.828;2023-02-03T11:10:36;99251.94;;;0.52;100.00
51239;BME280;38154;47.548;18.828;2023-02-03T11:15:35;99229.22;;;0.60;100.00
51239;BME280;38154;47.548;18.828;2023-02-03T11:18:01;99191.75;;;0.45;100.00
51239;BME280;38154;47.548;18.828;2023-02-03T11:20:28;99215.50;;;0.41;100.00
51239;BME280;38154;47.548;18.828;2023-02-03T11:22:54;99233.44;;;0.23;100.00
51239;BME280;38154;47.548;18.828;2023-02-03T11:25:26;99226.56;;;0.22;100.00
51239;BME280;38154;47.548;18.828;2023-02-03T11:27:54;99215.28;;;0.36;100.00
51239;BME280;38154;47.548;18.828;2023-02-03T11:30:25;99216.53;;;0.45;100.00
51239;BME280;38154;47.548;18.828;2023-02-03T11:32:54;99210.97;;;0.35;100.00
51239;BME280;38154;47.548;18.828;2023-02-03T11:35:25;99203.63;;;0.25;100.00
51239;BME280;38154;47.548;18.828;2023-02-03T11:37:59;99197.75;;;0.28;100.00
51239;BME280;38154;47.548;18.828;2023-02-03T11:40:30;99194.97;;;0.41;100.00
51239;BME280;38154;47.548;18.828;2023-02-03T11:50:26;99164.13;;;0.40;100.00
51239;BME280;38154;47.548;18.828;2023-02-03T11:52:57;99163.41;;;0.42;100.00
51239;BME280;38154;47.548;18.828;2023-02-03T12:03:33;99135.75;;;0.54;100.00
51239;BME280;38154;47.548;18.828;2023-02-03T12:06:42;99129.91;;;0.57;100.00
51239;BME280;38154;47.548;18.828;2023-02-03T12:12:06;99112.75;;;0.38;100.00
51239;BME280;38154;47.548;18.828;2023-02-03T12:23:11;99086.53;;;0.44;100.00
51239;BME280;38154;47.548;18.828;2023-02-03T12:25:55;99074.03;;;0.51;100.00
51239;BME280;38154;47.548;18.828;2023-02-03T12:28:44;99063.47;;;0.45;100.00
51239;BME280;38154;47.548;18.828;2023-02-03T12:34:39;99053.56;;;0.53;100.00
51239;BME280;38154;47.548;18.828;2023-02-03T12:37:18;99040.41;;;0.65;100.00
51239;BME280;38154;47.548;18.828;2023-02-03T12:39:51;99019.03;;;0.64;100.00
51239;BME280;38154;47.548;18.828;2023-02-03T12:42:27;99017.31;;;0.65;100.00
51239;BME280;38154;47.548;18.828;2023-02-03T12:47:39;99002.87;;;0.86;100.00
51239;BME280;38154;47.548;18.828;2023-02-03T12:50:43;98997.00;;;0.89;100.00
51239;BME280;38154;47.548;18.828;2023-02-03T12:53:33;98989.97;;;0.85;100.00
51239;BME280;38154;47.548;18.828;2023-02-03T12:56:06;98988.91;;;0.80;100.00
51239;BME280;38154;47.548;18.828;2023-02-03T12:58:51;98984.19;;;0.69;100.00
51239;BME280;38154;47.548;18.828;2023-02-03T13:01:35;98968.56;;;0.65;100.00
51239;BME280;38154;47.548;18.828;2023-02-03T13:04:31;98959.13;;;0.64;100.00
51239;BME280;38154;47.548;18.828;2023-02-03T13:07:06;98953.38;;;0.69;100.00
51239;BME280;38154;47.548;18.828;2023-02-03T13:17:27;98930.50;;;0.74;100.00
51239;BME280;38154;47.548;18.828;2023-02-03T13:19:58;98933.28;;;0.80;100.00
51239;BME280;38154;47.548;18.828;2023-02-03T13:22:26;98927.44;;;0.83;100.00
51239;BME280;38154;47.548;18.828;2023-02-03T13:41:03;98887.69;;;0.53;100.00
51239;BME280;38154;47.548;18.828;2023-02-03T13:43:38;98885.25;;;0.57;100.00
51239;BME280;38154;47.548;18.828;2023-02-03T13:46:07;98879.44;;;0.61;100.00
51239;BME280;38154;47.548;18.828;2023-02-03T13:48:43;98871.25;;;0.69;100.00
51239;BME280;38154;47.548;18.828;2023-02-03T13:51:16;98869.50;;;0.68;100.00
51239;BME280;38154;47.548;18.828;2023-02-03T13:53:44;98869.69;;;0.73;100.00
51239;BME280;38154;47.548;18.828;2023-02-03T13:56:22;98853.16;;;0.66;100.00
51239;BME280;38154;47.548;18.828;2023-02-03T14:01:40;98841.03;;;0.62;100.00
51239;BME280;38154;47.548;18.828;2023-02-03T14:14:41;98818.69;;;0.60;100.00
51239;BME280;38154;47.548;18.828;2023-02-03T14:20:00;98816.16;;;0.61;100.00
51239;BME280;38154;47.548;18.828;2023-02-03T14:22:26;98812.03;;;0.65;100.00
51239;BME280;38154;47.548;18.828;2023-02-03T14:24:53;98807.22;;;0.72;100.00
51239;BME280;38154;47.548;18.828;2023-02-03T14:27:23;98808.97;;;0.73;100.00
51239;BME280;38154;47.548;18.828;2023-02-03T14:32:56;98798.84;;;0.77;100.00
51239;BME280;38154;47.548;18.828;2023-02-03T14:35:28;98792.34;;;0.64;100.00
51239;BME280;38154;47.548;18.828;2023-02-03T14:37:58;98793.72;;;0.55;100.00
51239;BME280;38154;47.548;18.828;2023-02-03T14:43:15;98782.44;;;0.73;100.00
51239;BME280;38154;47.548;18.828;2023-02-03T14:45:51;98779.75;;;0.70;100.00
51239;BME280;38154;47.548;18.828;2023-02-03T14:48:27;98771.97;;;0.68;100.00
51239;BME280;38154;47.548;18.828;2023-02-03T14:59:16;98762.72;;;0.72;100.00
51239;BME280;38154;47.548;18.828;2023-02-03T15:06:41;98749.25;;;0.78;100.00